createdAt,value
2023-04-23T00:01:43.669Z,91499.47
2023-04-23T00:04:10.481Z,91497.25
2023-04-23T00:06:37.307Z,91495.25
2023-04-23T00:09:04.233Z,91498.56
2023-04-23T00:11:31.166Z,91498.56
2023-04-23T00:13:58.004Z,91488.50
2023-04-23T00:16:25.203Z,91501.72
2023-04-23T00:18:51.962Z,91497.09
2023-04-23T00:21:18.659Z,91491.97
2023-04-23T00:23:45.461Z,91488.44
2023-04-23T00:26:12.153Z,91492.06
2023-04-23T00:28:38.846Z,91500.59
2023-04-23T00:31:05.747Z,91495.97
2023-04-23T00:33:32.339Z,91497.28
2023-04-23T00:35:59.073Z,91497.66
2023-04-23T00:38:26.647Z,91501.47
2023-04-23T00:40:53.324Z,91513.38
2023-04-23T00:43:20.667Z,91511.84
2023-04-23T00:45:47.892Z,91510.25
2023-04-23T00:48:14.645Z,91515.06
2023-04-23T00:50:42.032Z,91514.56
2023-04-23T00:53:08.900Z,91515.66
2023-04-23T00:55:35.591Z,91515.91
2023-04-23T00:58:02.296Z,91517.53
2023-04-23T01:00:29.085Z,91514.66
2023-04-23T01:02:55.821Z,91512.34
2023-04-23T01:05:22.681Z,91502.72
2023-04-23T01:07:49.249Z,91507.16
2023-04-23T01:10:16.925Z,91508.97
2023-04-23T01:12:43.600Z,91514.69
2023-04-23T01:15:10.753Z,91515.72
2023-04-23T01:17:38.548Z,91515.16
2023-04-23T01:20:06.748Z,91506.84
2023-04-23T01:22:37.754Z,91513.09
2023-04-23T01:25:04.773Z,91512.59
2023-04-23T01:27:32.223Z,91511.56
2023-04-23T01:29:59.019Z,91500.66
2023-04-23T01:32:25.890Z,91509.47
2023-04-23T01:34:54.106Z,91501.88
2023-04-23T01:37:21.245Z,91508.41
2023-04-23T01:39:47.830Z,91511.50
2023-04-23T01:42:14.560Z,91516.44
2023-04-23T01:44:41.680Z,91514.44
2023-04-23T01:47:08.539Z,91515.66
2023-04-23T01:49:35.093Z,91508.97
2023-04-23T01:52:01.807Z,91504.06
2023-04-23T01:54:28.519Z,91505.34
2023-04-23T01:56:55.907Z,91509.97
2023-04-23T01:59:22.928Z,91515.19
2023-04-23T02:01:49.788Z,91519.09
2023-04-23T02:04:17.098Z,91513.09
2023-04-23T02:06:47.173Z,91512.56
2023-04-23T02:09:14.014Z,91514.06
2023-04-23T02:11:40.656Z,91509.81
2023-04-23T02:14:08.013Z,91505.13
2023-04-23T02:16:35.640Z,91511.66
2023-04-23T02:19:02.275Z,91508.69
2023-04-23T02:21:29.768Z,91506.88
2023-04-23T02:23:56.344Z,91502.72
2023-04-23T02:26:23.740Z,91503.00
2023-04-23T02:28:50.988Z,91504.25
2023-04-23T02:31:17.964Z,91501.44
2023-04-23T02:33:44.905Z,91501.31
2023-04-23T02:36:12.319Z,91495.53
2023-04-23T02:38:42.387Z,91502.94
2023-04-23T02:41:09.249Z,91503.91
2023-04-23T02:43:35.869Z,91494.94
2023-04-23T02:46:08.522Z,91498.63
2023-04-23T02:48:39.731Z,91500.31
2023-04-23T02:51:07.295Z,91497.72
2023-04-23T02:53:33.957Z,91502.28
2023-04-23T02:56:01.608Z,91503.13
2023-04-23T02:58:28.409Z,91495.53
2023-04-23T03:00:55.170Z,91491.75
2023-04-23T03:03:22.217Z,91490.97
2023-04-23T03:05:48.948Z,91495.88
2023-04-23T03:08:15.657Z,91500.53
2023-04-23T03:10:42.349Z,91498.91
2023-04-23T03:13:08.957Z,91505.16
2023-04-23T03:15:36.002Z,91513.94
2023-04-23T03:18:04.490Z,91509.31
2023-04-23T03:20:31.289Z,91511.06
2023-04-23T03:22:58.227Z,91514.81
2023-04-23T03:25:25.831Z,91511.31
2023-04-23T03:27:53.084Z,91517.19
2023-04-23T03:30:19.965Z,91519.31
2023-04-23T03:32:46.669Z,91514.94
2023-04-23T03:35:13.344Z,91519.66
2023-04-23T03:37:40.008Z,91518.94
2023-04-23T03:40:07.905Z,91526.00
2023-04-23T03:42:34.738Z,91527.97
2023-04-23T03:45:01.484Z,91529.66
2023-04-23T03:47:28.250Z,91522.50
2023-04-23T03:49:55.030Z,91530.19
2023-04-23T03:52:21.734Z,91531.75
2023-04-23T03:54:48.362Z,91529.06
2023-04-23T03:57:15.092Z,91536.59
2023-04-23T03:59:41.757Z,91531.28
2023-04-23T04:02:08.506Z,91529.09
2023-04-23T04:04:36.700Z,91537.84
2023-04-23T04:07:03.627Z,91538.50
2023-04-23T04:09:30.390Z,91547.88
2023-04-23T04:11:57.018Z,91543.81
2023-04-23T04:14:23.636Z,91541.94
2023-04-23T04:16:50.795Z,91548.34
2023-04-23T04:19:17.578Z,91546.41
2023-04-23T04:21:44.241Z,91546.97
2023-04-23T04:24:11.643Z,91553.53
2023-04-23T04:26:38.383Z,91556.66
2023-04-23T04:29:05.101Z,91555.81
2023-04-23T04:31:32.422Z,91557.44
2023-04-23T04:33:59.219Z,91560.31
2023-04-23T04:36:27.259Z,91561.38
2023-04-23T04:38:56.168Z,91565.41
2023-04-23T04:41:25.498Z,91571.88
2023-04-23T04:43:52.358Z,91575.25
2023-04-23T04:46:20.846Z,91567.09
2023-04-23T04:48:50.466Z,91573.31
2023-04-23T04:51:17.126Z,91577.94
2023-04-23T04:53:43.716Z,91570.25
2023-04-23T04:56:10.388Z,91572.47
2023-04-23T04:58:37.025Z,91567.53
2023-04-23T05:01:03.995Z,91575.53
2023-04-23T05:03:30.915Z,91570.41
2023-04-23T05:05:58.956Z,91575.34
2023-04-23T05:08:25.698Z,91574.09
2023-04-23T05:10:54.043Z,91580.13
2023-04-23T05:13:20.846Z,91584.13
2023-04-23T05:15:47.442Z,91587.59
2023-04-23T05:18:14.174Z,91585.41
2023-04-23T05:20:41.657Z,91591.34
2023-04-23T05:23:08.389Z,91585.44
2023-04-23T05:25:35.784Z,91585.31
2023-04-23T05:28:02.497Z,91584.91
2023-04-23T05:30:29.279Z,91590.22
2023-04-23T05:32:56.121Z,91589.22
2023-04-23T05:35:22.863Z,91586.19
2023-04-23T05:37:49.542Z,91594.09
2023-04-23T05:40:16.201Z,91595.09
2023-04-23T05:42:42.939Z,91590.63
2023-04-23T05:45:10.010Z,91583.88
2023-04-23T05:47:36.898Z,91588.44
2023-04-23T05:50:03.707Z,91585.59
2023-04-23T05:52:35.721Z,91589.81
2023-04-23T05:55:02.497Z,91592.47
2023-04-23T05:57:29.170Z,91584.84
2023-04-23T05:59:55.809Z,91579.13
2023-04-23T06:02:24.539Z,91581.63
2023-04-23T06:04:52.157Z,91585.50
2023-04-23T06:07:19.294Z,91581.97
2023-04-23T06:09:45.892Z,91582.81
2023-04-23T06:12:12.558Z,91578.03
2023-04-23T06:14:39.573Z,91579.78
2023-04-23T06:17:06.512Z,91583.94
2023-04-23T06:19:33.156Z,91573.31
2023-04-23T06:21:59.900Z,91571.41
2023-04-23T06:24:26.548Z,91575.56
2023-04-23T06:26:53.211Z,91571.19
2023-04-23T06:29:19.804Z,91571.56
2023-04-23T06:31:46.545Z,91571.38
2023-04-23T06:34:13.211Z,91575.25
2023-04-23T06:36:40.132Z,91573.19
2023-04-23T06:39:06.950Z,91567.25
2023-04-23T06:41:33.531Z,91566.00
2023-04-23T06:44:00.604Z,91564.69
2023-04-23T06:46:27.251Z,91561.34
2023-04-23T06:48:53.950Z,91569.22
2023-04-23T06:51:20.618Z,91577.53
2023-04-23T06:53:47.396Z,91564.56
2023-04-23T06:56:14.096Z,91570.94
2023-04-23T06:58:41.245Z,91572.31
2023-04-23T07:01:08.120Z,91574.56
2023-04-23T07:03:36.467Z,91574.34
2023-04-23T07:06:03.376Z,91566.56
2023-04-23T07:08:30.119Z,91565.09
2023-04-23T07:10:56.823Z,91567.59
2023-04-23T07:13:24.176Z,91571.75
2023-04-23T07:15:51.085Z,91559.53
2023-04-23T07:18:17.945Z,91561.41
2023-04-23T07:20:44.600Z,91558.16
2023-04-23T07:23:11.316Z,91552.63
2023-04-23T07:25:38.099Z,91553.41
2023-04-23T07:28:04.719Z,91551.38
2023-04-23T07:30:31.452Z,91553.78
2023-04-23T07:32:58.283Z,91558.41
2023-04-23T07:35:25.064Z,91550.19
2023-04-23T07:37:53.989Z,91555.38
2023-04-23T07:40:22.378Z,91551.06
2023-04-23T07:42:49.008Z,91553.03
2023-04-23T07:45:15.825Z,91553.41
2023-04-23T07:47:42.444Z,91556.84
2023-04-23T07:50:09.836Z,91549.09
2023-04-23T07:52:36.534Z,91545.38
2023-04-23T07:55:03.233Z,91551.47
2023-04-23T07:57:29.889Z,91546.22
2023-04-23T07:59:56.465Z,91552.00
2023-04-23T08:02:26.253Z,91553.47
2023-04-23T08:04:53.585Z,91548.31
2023-04-23T08:07:20.658Z,91545.91
2023-04-23T08:09:47.746Z,91543.84
2023-04-23T08:12:17.218Z,91560.56
2023-04-23T08:14:44.546Z,91550.94
2023-04-23T08:17:11.245Z,91544.38
2023-04-23T08:19:37.908Z,91542.63
2023-04-23T08:22:04.615Z,91548.41
2023-04-23T08:24:31.511Z,91542.66
2023-04-23T08:26:58.206Z,91546.63
2023-04-23T08:29:25.042Z,91544.69
2023-04-23T08:31:51.656Z,91538.03
2023-04-23T08:34:18.313Z,91538.88
2023-04-23T08:36:46.444Z,91534.06
2023-04-23T08:39:13.130Z,91534.03
2023-04-23T08:41:43.258Z,91536.59
2023-04-23T08:44:21.895Z,91531.22
2023-04-23T08:46:49.347Z,91526.88
2023-04-23T08:49:16.808Z,91529.09
2023-04-23T08:51:50.921Z,91520.91
2023-04-23T08:54:21.836Z,91524.78
2023-04-23T08:56:48.486Z,91521.69
2023-04-23T08:59:15.405Z,91520.50
2023-04-23T09:01:42.035Z,91510.53
2023-04-23T09:04:09.122Z,91521.75
2023-04-23T09:06:36.551Z,91510.91
2023-04-23T09:09:03.274Z,91513.31
2023-04-23T09:11:29.980Z,91518.25
2023-04-23T09:13:56.713Z,91506.03
2023-04-23T09:16:23.444Z,91509.41
2023-04-23T09:18:51.567Z,91517.16
2023-04-23T09:21:18.335Z,91510.91
2023-04-23T09:23:45.034Z,91521.66
2023-04-23T09:26:19.286Z,91514.69
2023-04-23T09:28:46.761Z,91522.72
2023-04-23T09:31:14.555Z,91516.13
2023-04-23T09:33:41.150Z,91515.00
2023-04-23T09:36:14.114Z,91509.19
2023-04-23T09:38:43.731Z,91512.63
2023-04-23T09:41:28.228Z,91505.25
2023-04-23T09:43:55.451Z,91504.72
2023-04-23T09:46:42.225Z,91508.41
2023-04-23T09:49:10.465Z,91496.88
2023-04-23T09:51:41.615Z,91495.19
2023-04-23T09:54:15.605Z,91499.19
2023-04-23T09:56:42.876Z,91501.94
2023-04-23T09:59:46.258Z,91493.88
2023-04-23T10:02:10.852Z,91502.25
2023-04-23T10:04:38.471Z,91497.16
2023-04-23T10:07:18.828Z,91495.06
2023-04-23T10:09:46.752Z,91498.06
2023-04-23T10:12:28.925Z,91497.22
2023-04-23T10:15:00.279Z,91484.63
2023-04-23T10:17:27.016Z,91483.63
2023-04-23T10:19:53.633Z,91482.44
2023-04-23T10:22:20.810Z,91480.38
2023-04-23T10:24:49.533Z,91482.69
2023-04-23T10:27:28.551Z,91479.41
2023-04-23T10:29:59.825Z,91475.28
2023-04-23T10:32:26.563Z,91472.91
2023-04-23T10:34:53.452Z,91478.63
2023-04-23T10:37:20.370Z,91478.97
2023-04-23T10:39:50.354Z,91478.44
2023-04-23T10:42:17.130Z,91478.28
2023-04-23T10:47:15.022Z,91474.44
2023-04-23T10:49:42.021Z,91472.19
2023-04-23T10:52:20.068Z,91472.09
2023-04-23T10:54:57.938Z,91470.66
2023-04-23T10:57:24.635Z,91475.75
2023-04-23T10:59:52.507Z,91475.38
2023-04-23T11:02:19.325Z,91466.03
2023-04-23T11:04:47.124Z,91470.34
2023-04-23T11:07:14.017Z,91470.59
2023-04-23T11:09:45.940Z,91466.13
2023-04-23T11:12:14.032Z,91475.38
2023-04-23T11:14:47.355Z,91473.84
2023-04-23T11:17:18.522Z,91467.00
2023-04-23T11:20:03.854Z,91469.81
2023-04-23T11:22:37.499Z,91462.53
2023-04-23T11:25:05.440Z,91468.47
2023-04-23T11:27:32.615Z,91471.16
2023-04-23T11:30:00.050Z,91471.72
2023-04-23T11:32:27.930Z,91481.84
2023-04-23T11:34:54.684Z,91488.00
2023-04-23T11:37:21.386Z,91481.13
2023-04-23T11:39:49.303Z,91476.09
2023-04-23T11:42:16.617Z,91460.41
2023-04-23T11:44:46.464Z,91448.59
2023-04-23T11:47:14.204Z,91447.97
2023-04-23T11:49:42.933Z,91448.69
2023-04-23T11:52:10.386Z,91451.34
2023-04-23T11:54:37.053Z,91444.06
2023-04-23T11:57:05.048Z,91441.16
2023-04-23T11:59:31.648Z,91432.81
2023-04-23T12:01:59.105Z,91431.72
2023-04-23T12:04:29.810Z,91425.28
2023-04-23T12:06:57.839Z,91420.28
2023-04-23T12:09:26.979Z,91418.16
2023-04-23T12:11:53.703Z,91417.31
2023-04-23T12:14:26.960Z,91408.03
2023-04-23T12:16:53.689Z,91408.69
2023-04-23T12:19:22.036Z,91397.47
2023-04-23T12:21:49.795Z,91392.09
2023-04-23T12:24:16.542Z,91382.88
2023-04-23T12:26:46.359Z,91390.00
2023-04-23T12:29:13.507Z,91378.41
2023-04-23T12:31:40.426Z,91380.81
2023-04-23T12:34:08.431Z,91373.97
2023-04-23T12:36:38.557Z,91378.66
2023-04-23T12:39:36.137Z,91381.75
2023-04-23T12:42:05.156Z,91380.25
2023-04-23T12:44:33.535Z,91373.31
2023-04-23T12:47:03.522Z,91362.16
2023-04-23T12:49:30.401Z,91359.06
2023-04-23T12:52:02.803Z,91363.34
2023-04-23T12:54:33.768Z,91363.06
2023-04-23T12:57:02.803Z,91364.59
2023-04-23T12:59:29.980Z,91360.28
2023-04-23T13:01:56.804Z,91368.66
2023-04-23T13:04:23.485Z,91366.16
2023-04-23T13:06:51.398Z,91362.75
2023-04-23T13:09:18.156Z,91359.06
2023-04-23T13:11:46.228Z,91360.75
2023-04-23T13:14:12.828Z,91357.97
2023-04-23T13:16:39.553Z,91364.69
2023-04-23T13:19:06.274Z,91361.47
2023-04-23T13:21:32.834Z,91363.66
2023-04-23T13:23:59.522Z,91364.59
2023-04-23T13:26:27.065Z,91355.47
2023-04-23T13:28:53.700Z,91367.91
2023-04-23T13:31:21.271Z,91372.25
2023-04-23T13:33:47.912Z,91369.06
2023-04-23T13:36:14.607Z,91370.97
2023-04-23T13:38:41.607Z,91373.75
2023-04-23T13:41:08.288Z,91360.53
2023-04-23T13:43:34.944Z,91360.91
2023-04-23T13:46:01.772Z,91356.56
2023-04-23T13:48:31.560Z,91364.81
2023-04-23T13:51:01.647Z,91358.03
2023-04-23T13:53:28.327Z,91359.34
2023-04-23T13:55:55.946Z,91358.69
2023-04-23T13:58:23.348Z,91354.69
2023-04-23T14:00:50.280Z,91350.47
2023-04-23T14:03:17.302Z,91347.38
2023-04-23T14:05:43.988Z,91349.47
2023-04-23T14:08:10.994Z,91346.63
2023-04-23T14:10:39.031Z,91339.22
2023-04-23T14:13:05.839Z,91331.72
2023-04-23T14:15:32.453Z,91340.03
2023-04-23T14:17:59.885Z,91337.50
2023-04-23T14:20:26.637Z,91331.50
2023-04-23T14:22:58.520Z,91337.50
2023-04-23T14:25:46.633Z,91333.16
2023-04-23T14:28:39.897Z,91331.09
2023-04-23T14:31:07.098Z,91333.16
2023-04-23T14:33:33.790Z,91329.13
2023-04-23T14:36:00.476Z,91335.28
2023-04-23T14:38:27.151Z,91328.38
2023-04-23T14:40:53.862Z,91330.50
2023-04-23T14:43:20.541Z,91330.19
2023-04-23T14:45:47.314Z,91328.03
2023-04-23T14:48:14.151Z,91323.25
2023-04-23T14:50:40.822Z,91326.59
2023-04-23T14:53:10.060Z,91323.94
2023-04-23T14:55:36.782Z,91326.06
2023-04-23T14:58:03.501Z,91339.50
2023-04-23T15:00:30.275Z,91336.47
2023-04-23T15:02:57.135Z,91332.41
2023-04-23T15:05:24.303Z,91328.25
2023-04-23T15:07:51.858Z,91330.78
2023-04-23T15:10:20.394Z,91326.72
2023-04-23T15:13:35.596Z,91327.94
2023-04-23T15:16:03.069Z,91326.16
2023-04-23T15:18:29.803Z,91324.56
2023-04-23T15:20:56.458Z,91326.00
2023-04-23T15:23:24.306Z,91326.69
2023-04-23T15:25:51.027Z,91320.44
2023-04-23T15:28:17.859Z,91323.81
2023-04-23T15:30:47.725Z,91322.59
2023-04-23T15:33:14.473Z,91330.78
2023-04-23T15:35:41.133Z,91328.91
2023-04-23T15:38:07.768Z,91326.22
2023-04-23T15:40:42.048Z,91331.47
2023-04-23T15:43:12.554Z,91323.16
2023-04-23T15:45:39.546Z,91329.78
2023-04-23T15:48:06.283Z,91329.53
2023-04-23T15:50:32.952Z,91328.34
2023-04-23T15:53:01.483Z,91331.31
2023-04-23T15:55:28.910Z,91326.97
2023-04-23T15:57:55.784Z,91323.38
2023-04-23T16:00:22.635Z,91325.22
2023-04-23T16:02:49.456Z,91326.81
2023-04-23T16:05:16.534Z,91335.38
2023-04-23T16:07:44.388Z,91334.84
2023-04-23T16:10:11.302Z,91338.63
2023-04-23T16:12:38.215Z,91325.53
2023-04-23T16:15:05.339Z,91328.75
2023-04-23T16:17:31.992Z,91327.84
2023-04-23T16:19:58.748Z,91326.31
2023-04-23T16:22:25.582Z,91337.63
2023-04-23T16:24:52.184Z,91338.72
2023-04-23T16:27:18.879Z,91339.59
2023-04-23T16:29:45.496Z,91338.72
2023-04-23T16:32:12.252Z,91337.91
2023-04-23T16:34:38.917Z,91327.94
2023-04-23T16:37:05.933Z,91331.50
2023-04-23T16:39:33.241Z,91323.47
2023-04-23T16:42:00.010Z,91330.97
2023-04-23T16:44:26.627Z,91326.22
2023-04-23T16:46:53.268Z,91327.75
2023-04-23T16:49:20.032Z,91320.50
2023-04-23T16:51:46.635Z,91321.47
2023-04-23T16:54:13.318Z,91314.72
2023-04-23T16:56:39.960Z,91324.19
2023-04-23T16:59:06.714Z,91320.59
2023-04-23T17:01:33.354Z,91327.19
2023-04-23T17:04:00.199Z,91320.06
2023-04-23T17:06:28.143Z,91329.06
2023-04-23T17:08:55.128Z,91331.81
2023-04-23T17:11:23.189Z,91336.44
2023-04-23T17:13:50.313Z,91337.44
2023-04-23T17:16:17.077Z,91332.06
2023-04-23T17:18:43.839Z,91326.88
2023-04-23T17:21:10.807Z,91337.28
2023-04-23T17:23:37.399Z,91343.47
2023-04-23T17:26:04.127Z,91347.72
2023-04-23T17:28:30.790Z,91354.53
2023-04-23T17:30:57.489Z,91345.78
2023-04-23T17:33:24.443Z,91357.22
2023-04-23T17:35:52.257Z,91346.66
2023-04-23T17:38:20.761Z,91353.16
2023-04-23T17:40:48.459Z,91354.88
2023-04-23T17:43:15.597Z,91361.69
2023-04-23T17:45:42.402Z,91361.13
2023-04-23T17:48:09.436Z,91368.13
2023-04-23T17:50:36.488Z,91367.00
2023-04-23T17:53:03.918Z,91361.13
2023-04-23T17:55:32.868Z,91369.91
2023-04-23T17:58:06.632Z,91360.63
2023-04-23T18:00:36.946Z,91367.97
2023-04-23T18:03:04.098Z,91366.81
2023-04-23T18:05:31.278Z,91363.38
2023-04-23T18:07:57.997Z,91375.63
2023-04-23T18:10:24.755Z,91380.00
2023-04-23T18:12:51.519Z,91377.97
2023-04-23T18:15:18.278Z,91386.16
2023-04-23T18:17:45.528Z,91389.69
2023-04-23T18:20:13.452Z,91384.75
2023-04-23T18:22:41.297Z,91392.78
2023-04-23T18:25:10.151Z,91389.81
2023-04-23T18:27:36.770Z,91393.16
2023-04-23T18:30:05.566Z,91396.34
2023-04-23T18:32:37.479Z,91398.66
2023-04-23T18:35:08.097Z,91393.47
2023-04-23T18:38:04.765Z,91396.34
2023-04-23T18:40:31.416Z,91396.66
2023-04-23T18:42:58.175Z,91410.91
2023-04-23T18:45:24.931Z,91407.03
2023-04-23T18:47:56.465Z,91399.63
2023-04-23T18:50:30.371Z,91403.31
2023-04-23T18:52:57.142Z,91409.50
2023-04-23T18:55:23.827Z,91406.41
2023-04-23T18:57:50.393Z,91407.59
2023-04-23T19:00:17.241Z,91413.69
2023-04-23T19:02:43.963Z,91422.75
2023-04-23T19:05:11.385Z,91417.19
2023-04-23T19:07:40.501Z,91422.72
2023-04-23T19:10:07.878Z,91418.50
2023-04-23T19:12:34.556Z,91424.72
2023-04-23T19:15:01.244Z,91409.63
2023-04-23T19:17:28.091Z,91408.94
2023-04-23T19:19:54.940Z,91421.16
2023-04-23T19:22:25.024Z,91419.78
2023-04-23T19:24:51.729Z,91409.72
2023-04-23T19:27:18.322Z,91416.09
2023-04-23T19:29:46.588Z,91421.00
2023-04-23T19:32:13.277Z,91430.47
2023-04-23T19:34:40.055Z,91416.56
2023-04-23T19:37:07.865Z,91421.41
2023-04-23T19:39:34.492Z,91411.91
2023-04-23T19:42:02.643Z,91419.84
2023-04-23T19:44:29.570Z,91414.91
2023-04-23T19:46:56.702Z,91415.84
2023-04-23T19:49:23.510Z,91406.88
2023-04-23T19:51:52.293Z,91405.91
2023-04-23T19:54:18.944Z,91416.03
2023-04-23T19:56:45.674Z,91417.19
2023-04-23T19:59:15.350Z,91410.75
2023-04-23T20:01:41.998Z,91410.19
2023-04-23T20:04:09.402Z,91421.09
2023-04-23T20:06:36.633Z,91421.56
2023-04-23T20:09:17.946Z,91418.66
2023-04-23T20:11:45.857Z,91422.03
2023-04-23T20:14:13.039Z,91426.19
2023-04-23T20:16:40.580Z,91419.22
2023-04-23T20:19:10.952Z,91413.16
2023-04-23T20:21:38.990Z,91422.72
2023-04-23T20:24:07.367Z,91420.06
2023-04-23T20:26:35.019Z,91423.09
2023-04-23T20:29:01.770Z,91419.03
2023-04-23T20:31:28.555Z,91422.09
2023-04-23T20:33:55.813Z,91415.75
2023-04-23T20:36:23.418Z,91422.38
2023-04-23T20:38:50.186Z,91416.56
2023-04-23T20:41:17.184Z,91424.72
2023-04-23T20:43:43.880Z,91421.31
2023-04-23T20:46:10.584Z,91420.16
2023-04-23T20:48:37.445Z,91419.09
2023-04-23T20:51:04.218Z,91425.22
2023-04-23T20:53:30.926Z,91412.59
2023-04-23T20:55:57.802Z,91417.09
2023-04-23T20:58:24.506Z,91416.88
2023-04-23T21:00:51.411Z,91414.69
2023-04-23T21:03:18.905Z,91420.88
2023-04-23T21:05:45.795Z,91412.22
2023-04-23T21:08:13.744Z,91420.66
2023-04-23T21:10:41.148Z,91423.06
2023-04-23T21:13:08.515Z,91419.53
2023-04-23T21:15:35.601Z,91426.41
2023-04-23T21:18:02.865Z,91419.56
2023-04-23T21:20:29.864Z,91420.44
2023-04-23T21:22:56.521Z,91426.28
2023-04-23T21:25:23.166Z,91423.75
2023-04-23T21:27:50.491Z,91421.50
2023-04-23T21:30:43.100Z,91424.31
2023-04-23T21:33:09.833Z,91426.63
2023-04-23T21:35:36.554Z,91426.09
2023-04-23T21:38:03.240Z,91428.59
2023-04-23T21:40:29.979Z,91428.00
2023-04-23T21:42:56.728Z,91428.56
2023-04-23T21:45:23.706Z,91419.56
2023-04-23T21:47:51.096Z,91421.97
2023-04-23T21:50:17.728Z,91426.31
2023-04-23T21:52:44.594Z,91431.19
2023-04-23T21:55:12.612Z,91423.63
2023-04-23T21:57:39.217Z,91429.31
2023-04-23T22:00:06.947Z,91429.59
2023-04-23T22:02:33.928Z,91431.13
2023-04-23T22:05:00.810Z,91430.75
2023-04-23T22:07:29.463Z,91424.94
2023-04-23T22:09:57.231Z,91421.41
2023-04-23T22:12:23.958Z,91420.56
2023-04-23T22:14:50.732Z,91428.56
2023-04-23T22:17:18.848Z,91438.13
2023-04-23T22:19:45.961Z,91432.16
2023-04-23T22:22:12.684Z,91430.28
2023-04-23T22:24:39.401Z,91429.66
2023-04-23T22:27:08.709Z,91433.03
2023-04-23T22:29:35.328Z,91424.41
2023-04-23T22:32:02.100Z,91422.97
2023-04-23T22:34:28.866Z,91429.69
2023-04-23T22:36:55.682Z,91435.19
2023-04-23T22:39:22.460Z,91431.94
2023-04-23T22:41:49.104Z,91424.94
2023-04-23T22:44:15.750Z,91422.13
2023-04-23T22:46:42.883Z,91426.28
2023-04-23T22:49:11.240Z,91426.34
2023-04-23T22:51:39.163Z,91418.91
2023-04-23T22:54:05.992Z,91424.31
2023-04-23T22:56:32.719Z,91422.56
2023-04-23T22:58:59.434Z,91419.00
2023-04-23T23:01:26.433Z,91426.81
2023-04-23T23:03:53.210Z,91415.63
2023-04-23T23:06:19.926Z,91421.50
2023-04-23T23:08:46.611Z,91424.91
2023-04-23T23:11:13.291Z,91430.03
2023-04-23T23:13:40.657Z,91428.03
2023-04-23T23:16:07.305Z,91429.97
2023-04-23T23:18:34.052Z,91421.66
2023-04-23T23:21:01.137Z,91431.06
2023-04-23T23:23:27.808Z,91430.38
2023-04-23T23:25:55.150Z,91428.38
2023-04-23T23:28:21.854Z,91443.91
2023-04-23T23:30:49.195Z,91434.44
2023-04-23T23:33:16.550Z,91420.13
2023-04-23T23:35:43.766Z,91398.34
2023-04-23T23:38:10.906Z,91381.13
2023-04-23T23:40:37.829Z,91385.94
2023-04-23T23:43:04.493Z,91397.78
2023-04-23T23:45:31.776Z,91400.13
2023-04-23T23:47:58.386Z,91398.25
2023-04-23T23:50:26.160Z,91396.00
2023-04-23T23:52:53.734Z,91408.09
2023-04-23T23:55:20.441Z,91413.03
2023-04-23T23:57:47.068Z,91403.13
